Time;durP1;ratioP1;P1;durP2;ratioP2;P2;SDS_P1;SDS_P2;PMS_P1;PMS_P2;Temp;Humidity;BMP_temperature;BMP_pressure;BME280_temperature;BME280_humidity;BME280_pressure;Samples;Min_cycle;Max_cycle;Signal;HPM_P1;HPM_P2
2023/04/10 00:00:07;;;;;;;53.90;22.90;;;;;;;6.53;83.98;101724.36;110965;1211;140963;-61
2023/04/10 00:02:32;;;;;;;46.50;23.00;;;;;;;6.49;83.83;101719.78;111120;1208;98999;-61
2023/04/10 00:04:58;;;;;;;48.60;23.30;;;;;;;6.43;83.78;101723.73;110988;1220;98962;-59
2023/04/10 00:07:24;;;;;;;44.70;20.60;;;;;;;6.37;83.99;101722.54;110916;1211;140334;-59
2023/04/10 00:09:49;;;;;;;45.50;20.70;;;;;;;6.33;84.25;101720.09;111013;1211;100498;-59
2023/04/10 00:12:15;;;;;;;50.60;23.40;;;;;;;6.30;84.14;101718.18;110873;1212;139080;-59
2023/04/10 00:14:40;;;;;;;49.60;23.20;;;;;;;6.24;84.28;101721.23;111014;1211;99024;-58
2023/04/10 00:17:06;;;;;;;45.20;23.20;;;;;;;6.22;84.44;101720.02;110966;1208;99020;-59
2023/04/10 00:19:32;;;;;;;47.80;23.00;;;;;;;6.22;84.76;101718.60;110911;1208;140546;-59
2023/04/10 00:21:57;;;;;;;45.60;22.60;;;;;;;6.20;84.60;101722.88;111047;1211;98993;-61
2023/04/10 00:24:23;;;;;;;46.20;23.80;;;;;;;6.19;84.76;101719.34;110882;1213;138915;-60
2023/04/10 00:26:49;;;;;;;52.80;23.50;;;;;;;6.20;84.77;101722.17;111037;1211;98992;-59
2023/04/10 00:29:14;;;;;;;53.10;24.40;;;;;;;6.17;84.61;101719.34;111051;1211;98978;-59
2023/04/10 00:31:39;;;;;;;50.50;23.70;;;;;;;6.16;84.87;101714.21;110832;1211;140291;-60
2023/04/10 00:34:05;;;;;;;43.50;23.40;;;;;;;6.17;85.08;101708.70;110962;1211;99407;-59
2023/04/10 00:36:31;;;;;;;49.20;22.90;;;;;;;6.18;85.24;101704.96;110884;1211;139830;-59
2023/04/10 00:38:58;;;;;;;51.80;22.60;;;;;;;6.18;85.09;101703.55;111039;1211;99063;-59
2023/04/10 00:41:24;;;;;;;50.00;24.60;;;;;;;6.18;85.33;101699.10;110942;1211;140677;-61
2023/04/10 00:43:55;;;;;;;52.90;24.90;;;;;;;6.20;85.35;101702.82;111091;1211;99013;-60
2023/04/10 00:46:21;;;;;;;56.30;25.80;;;;;;;6.23;85.58;101699.60;111026;1206;98939;-59
2023/04/10 00:48:46;;;;;;;50.70;24.40;;;;;;;6.24;85.50;101700.66;110874;1211;138884;-60
2023/04/10 00:51:12;;;;;;;47.00;23.10;;;;;;;6.24;85.49;101702.61;111078;1211;99019;-60
2023/04/10 00:53:37;;;;;;;49.40;22.30;;;;;;;6.23;85.47;101700.13;110885;1211;139449;-60
2023/04/10 00:56:03;;;;;;;57.10;23.30;;;;;;;6.21;85.52;101701.92;111009;1211;98944;-59
2023/04/10 00:58:28;;;;;;;44.80;22.10;;;;;;;6.19;85.57;101704.61;111088;1208;98955;-60
2023/04/10 01:00:54;;;;;;;52.00;25.60;;;;;;;6.17;85.57;101702.14;110880;1222;141298;-60
2023/04/10 01:03:20;;;;;;;42.70;21.00;;;;;;;6.16;85.67;101701.42;111008;1211;98956;-60
2023/04/10 01:06:05;;;;;;;48.60;23.00;;;;;;;6.14;85.58;101699.84;110939;1206;143024;-59
2023/04/10 01:08:44;;;;;;;49.80;23.40;;;;;;;6.12;85.76;101698.80;110984;1207;111771;-60
2023/04/10 01:11:37;;;;;;;48.60;21.10;;;;;;;6.11;85.64;101699.17;110994;1211;100054;-59
2023/04/10 01:14:18;;;;;;;46.80;23.40;;;;;;;6.09;85.79;101699.89;110843;1215;107791;-60
2023/04/10 01:16:52;;;;;;;;;;;;;;;6.10;85.93;101702.19;110961;1211;99039;-59
2023/04/10 01:19:50;;;;;;;46.80;22.40;;;;;;;6.09;85.98;101701.48;110926;1206;125587;-59
2023/04/10 01:22:17;;;;;;;47.50;21.00;;;;;;;6.09;85.82;101701.85;110976;1210;112172;-59
2023/04/10 01:25:05;;;;;;;52.60;23.10;;;;;;;6.08;86.00;101702.73;110956;1206;140587;-60
2023/04/10 01:27:45;;;;;;;41.20;22.20;;;;;;;6.07;86.14;101710.38;110981;1210;108050;-60
2023/04/10 01:30:15;;;;;;;47.90;23.10;;;;;;;6.06;86.21;101714.11;110899;1211;139642;-60
2023/04/10 01:32:42;;;;;;;45.50;22.40;;;;;;;6.04;86.19;101712.88;111017;1211;99611;-61
2023/04/10 01:35:09;;;;;;;46.00;21.50;;;;;;;6.04;86.22;101717.67;110994;1211;99070;-61
2023/04/10 01:37:39;;;;;;;40.20;20.90;;;;;;;6.04;86.39;101717.50;110942;1210;140210;-61
2023/04/10 01:40:10;;;;;;;39.80;21.80;;;;;;;6.04;86.22;101718.92;110982;1206;108011;-61
2023/04/10 01:42:43;;;;;;;46.90;23.40;;;;;;;6.02;86.27;101717.52;110823;1211;140798;-61
2023/04/10 01:45:13;;;;;;;46.60;21.40;;;;;;;5.99;86.24;101716.64;111027;1211;99413;-61
2023/04/10 01:47:39;;;;;;;43.80;22.50;;;;;;;5.95;86.17;101712.06;110871;1211;138924;-61
2023/04/10 01:50:06;;;;;;;46.00;23.30;;;;;;;5.92;86.27;101714.75;110958;1212;99131;-61
2023/04/10 01:52:33;;;;;;;47.90;22.10;;;;;;;5.88;86.20;101714.94;111159;1212;98951;-61
2023/04/10 01:55:01;;;;;;;47.60;23.10;;;;;;;5.84;86.20;101718.31;111000;1211;138929;-61
2023/04/10 01:57:30;;;;;;;49.20;22.80;;;;;;;5.82;86.44;101717.45;111126;1206;99006;-61
2023/04/10 01:59:56;;;;;;;46.10;22.40;;;;;;;5.82;86.46;101720.11;110901;1211;140987;-61
2023/04/10 02:02:21;;;;;;;48.60;24.00;;;;;;;5.80;86.55;101715.67;110949;1223;98968;-61
2023/04/10 02:04:50;;;;;;;45.50;22.70;;;;;;;5.79;86.42;101721.37;111052;1206;99060;-61
2023/04/10 02:07:27;;;;;;;44.00;22.10;;;;;;;5.76;86.38;101714.11;110902;1211;139719;-62
2023/04/10 02:09:58;;;;;;;55.30;23.60;;;;;;;5.75;86.48;101718.20;111023;1211;112988;-61
2023/04/10 02:12:37;;;;;;;48.00;22.50;;;;;;;5.70;86.18;101722.30;110863;1206;138833;-61
2023/04/10 02:15:05;;;;;;;52.50;24.70;;;;;;;5.60;86.13;101720.95;110985;1206;108444;-61
2023/04/10 02:17:32;;;;;;;65.30;23.20;;;;;;;5.52;86.29;101721.52;110844;1212;140813;-61
2023/04/10 02:19:59;;;;;;;44.10;23.10;;;;;;;5.48;86.41;101724.39;111008;1212;99015;-61
2023/04/10 02:22:25;;;;;;;48.40;23.10;;;;;;;5.43;86.27;101725.65;111017;1211;98945;-61
2023/04/10 02:24:52;;;;;;;47.40;23.10;;;;;;;5.35;86.07;101723.21;110986;1206;140738;-61
2023/04/10 02:27:33;;;;;;;46.00;24.00;;;;;;;5.29;86.39;101722.52;111028;1217;98987;-61
2023/04/10 02:29:59;;;;;;;44.00;23.30;;;;;;;5.25;86.55;101719.53;110853;1211;139568;-61
2023/04/10 02:32:26;;;;;;;45.70;23.20;;;;;;;5.23;86.46;101720.60;111134;1206;98980;-61
2023/04/10 02:34:51;;;;;;;46.00;23.70;;;;;;;5.18;86.51;101723.67;110988;1211;98930;-60
2023/04/10 02:37:16;;;;;;;54.00;26.30;;;;;;;5.13;86.52;101722.45;110988;1206;139295;-61
2023/04/10 02:39:42;;;;;;;49.60;24.50;;;;;;;5.10;86.76;101727.77;110985;1210;100342;-61
2023/04/10 02:42:07;;;;;;;44.40;23.80;;;;;;;5.05;86.42;101730.45;110987;1219;139622;-61
2023/04/10 02:44:32;;;;;;;43.40;23.00;;;;;;;5.00;86.58;101726.04;110988;1209;99062;-61
2023/04/10 02:46:58;;;;;;;40.10;21.10;;;;;;;4.98;86.60;101730.65;110978;1212;99176;-61
2023/04/10 02:49:23;;;;;;;36.00;18.50;;;;;;;4.93;86.44;101728.89;110958;1206;140448;-61
2023/04/10 02:51:48;;;;;;;45.10;21.60;;;;;;;4.83;86.45;101731.75;111038;1220;99062;-60
2023/04/10 02:54:13;;;;;;;44.70;22.30;;;;;;;4.77;86.62;101731.06;110969;1206;140467;-61
2023/04/10 02:56:38;;;;;;;36.90;19.70;;;;;;;4.71;86.60;101730.72;110997;1206;97898;-61
2023/04/10 02:59:04;;;;;;;43.20;20.80;;;;;;;4.64;86.58;101730.91;111104;1212;98958;-61
2023/04/10 03:01:29;;;;;;;38.60;21.50;;;;;;;4.61;86.75;101732.69;110901;1212;139326;-61
2023/04/10 03:03:55;;;;;;;37.70;19.70;;;;;;;4.56;86.39;101727.73;110942;1212;99035;-61
2023/04/10 03:06:22;;;;;;;40.10;19.70;;;;;;;4.47;86.44;101729.70;110939;1212;141110;-61
2023/04/10 03:08:47;;;;;;;41.10;20.80;;;;;;;4.42;86.56;101727.23;111029;1212;112778;-61
2023/04/10 03:11:12;;;;;;;41.50;21.40;;;;;;;4.41;86.88;101728.46;111009;1212;99111;-61
2023/04/10 03:13:38;;;;;;;40.50;21.60;;;;;;;4.42;87.11;101732.35;110878;1209;140325;-61
2023/04/10 03:16:03;;;;;;;46.10;22.20;;;;;;;4.42;87.02;101728.80;111021;1212;99016;-61
2023/04/10 03:18:30;;;;;;;42.80;21.20;;;;;;;4.42;87.29;101727.21;110925;1206;139910;-60
2023/04/10 03:20:56;;;;;;;37.80;21.20;;;;;;;4.44;87.31;101726.69;111025;1212;108076;-61
2023/04/10 03:23:21;;;;;;;39.80;20.40;;;;;;;4.43;87.04;101726.15;111054;1212;99024;-62
2023/04/10 03:25:53;;;;;;;42.00;21.00;;;;;;;4.41;87.10;101728.98;111024;1206;139293;-62
2023/04/10 03:28:19;;;;;;;43.50;22.10;;;;;;;4.37;87.12;101726.17;111000;1206;99938;-60
2023/04/10 03:30:45;;;;;;;41.90;20.90;;;;;;;4.35;87.09;101731.83;110892;1209;140373;-60
2023/04/10 03:33:10;;;;;;;44.10;21.50;;;;;;;4.33;87.21;101729.70;111086;1221;98878;-60
2023/04/10 03:35:35;;;;;;;40.40;20.60;;;;;;;4.32;87.28;101733.08;110874;1212;142045;-60
2023/04/10 03:38:00;;;;;;;43.10;22.90;;;;;;;4.30;87.11;101729.35;111049;1212;100498;-60
2023/04/10 03:40:26;;;;;;;41.40;21.90;;;;;;;4.30;87.34;101730.41;110966;1207;98947;-60
2023/04/10 03:42:51;;;;;;;44.40;21.40;;;;;;;4.32;87.47;101731.82;110916;1212;139373;-60
2023/04/10 03:45:16;;;;;;;43.50;21.10;;;;;;;4.31;87.38;101729.52;111083;1212;98989;-60
2023/04/10 03:47:42;;;;;;;41.50;22.10;;;;;;;4.31;87.41;101733.25;110880;1212;139175;-60
2023/04/10 03:50:08;;;;;;;39.20;21.30;;;;;;;4.31;87.43;101730.23;111118;1210;99042;-60
2023/04/10 03:52:33;;;;;;;45.70;23.90;;;;;;;4.31;87.31;101730.59;110985;1206;113053;-60
2023/04/10 03:54:58;;;;;;;46.50;20.40;;;;;;;4.32;87.47;101735.90;110892;1209;139022;-60
2023/04/10 03:57:23;;;;;;;39.40;21.10;;;;;;;4.33;87.43;101735.72;110995;1221;98918;-60
2023/04/10 03:59:48;;;;;;;40.00;21.80;;;;;;;4.33;87.71;101733.42;110918;1210;139490;-60
2023/04/10 04:02:14;;;;;;;42.90;22.70;;;;;;;4.35;87.61;101733.59;111073;1212;98896;-60
2023/04/10 04:04:40;;;;;;;40.90;21.80;;;;;;;4.34;87.77;101734.12;110953;1210;99074;-60
2023/04/10 04:07:05;;;;;;;43.50;21.50;;;;;;;4.36;87.76;101737.84;110844;1208;141079;-60
2023/04/10 04:09:30;;;;;;;44.40;22.40;;;;;;;4.40;87.85;101740.84;111084;1211;99051;-60
2023/04/10 04:11:56;;;;;;;44.10;20.10;;;;;;;4.43;87.83;101741.02;110865;1211;141282;-60
2023/04/10 04:14:22;;;;;;;33.80;20.20;;;;;;;4.47;87.95;101741.55;111037;1212;99003;-60
2023/04/10 04:16:48;;;;;;;37.70;20.10;;;;;;;4.49;87.93;101739.95;111027;1212;99037;-60
2023/04/10 04:19:14;;;;;;;37.80;18.90;;;;;;;4.50;87.88;101735.71;110933;1212;139734;-60
2023/04/10 04:21:39;;;;;;;35.90;19.50;;;;;;;4.51;87.79;101738.19;111026;1206;99158;-60
2023/04/10 04:24:05;;;;;;;37.70;20.40;;;;;;;4.53;87.67;101733.94;110895;1206;139849;-60
2023/04/10 04:26:30;;;;;;;35.50;19.60;;;;;;;4.56;87.95;101732.16;110921;1206;98931;-60
2023/04/10 04:28:55;;;;;;;31.70;18.90;;;;;;;4.60;88.02;101733.05;111108;1209;99005;-60
2023/04/10 04:31:20;;;;;;;37.90;19.60;;;;;;;4.63;88.12;101730.38;110918;1209;140812;-60
2023/04/10 04:33:46;;;;;;;37.10;19.60;;;;;;;4.67;88.00;101733.56;111079;1212;99117;-60
2023/04/10 04:36:11;;;;;;;33.60;19.80;;;;;;;4.70;88.08;101738.15;110887;1212;141629;-60
2023/04/10 04:38:36;;;;;;;40.30;20.70;;;;;;;4.73;88.16;101736.73;111026;1210;98751;-59
2023/04/10 04:41:02;;;;;;;38.90;21.00;;;;;;;4.78;88.30;101739.92;111045;1206;98896;-60
2023/04/10 04:43:27;;;;;;;41.20;20.40;;;;;;;4.83;88.37;101745.74;110861;1209;140659;-61
2023/04/10 04:45:52;;;;;;;38.10;20.20;;;;;;;4.88;88.34;101749.45;111112;1211;97951;-60
2023/04/10 04:48:18;;;;;;;40.70;20.60;;;;;;;4.90;88.21;101747.67;110886;1206;139424;-60
2023/04/10 04:50:43;;;;;;;36.60;18.70;;;;;;;4.93;88.20;101746.08;111049;1221;99127;-60
2023/04/10 04:53:08;;;;;;;37.60;20.30;;;;;;;4.98;88.51;101745.35;111083;1206;99022;-60
2023/04/10 04:55:33;;;;;;;34.50;19.40;;;;;;;5.02;88.40;101747.83;110930;1207;140532;-61
2023/04/10 04:57:59;;;;;;;37.80;18.40;;;;;;;5.06;88.46;101757.91;111021;1209;99073;-61
2023/04/10 05:00:24;;;;;;;32.40;18.10;;;;;;;5.10;88.45;101757.89;110828;1206;138867;-60
2023/04/10 05:02:49;;;;;;;31.80;17.90;;;;;;;5.15;88.47;101761.77;111112;1212;99037;-60
2023/04/10 05:05:15;;;;;;;33.80;17.10;;;;;;;5.16;88.36;101760.00;111022;1206;99062;-60
2023/04/10 05:07:40;;;;;;;32.20;18.00;;;;;;;5.15;88.30;101761.06;110927;1209;140147;-60
2023/04/10 05:10:07;;;;;;;33.30;18.30;;;;;;;5.14;88.43;101768.15;111004;1212;98998;-60
2023/04/10 05:12:32;;;;;;;40.20;20.60;;;;;;;5.15;88.58;101769.75;110881;1209;141285;-60
2023/04/10 05:14:57;;;;;;;36.30;20.00;;;;;;;5.19;88.50;101771.69;111014;1210;99008;-60
2023/04/10 05:17:22;;;;;;;37.80;19.80;;;;;;;5.22;88.70;101773.06;111020;1212;99055;-60
2023/04/10 05:19:48;;;;;;;35.40;17.80;;;;;;;5.30;88.62;101781.89;110926;1206;138753;-60
2023/04/10 05:22:13;;;;;;;29.20;17.50;;;;;;;5.27;88.52;101782.08;111081;1206;99150;-60
2023/04/10 05:24:38;;;;;;;38.80;19.50;;;;;;;5.26;88.78;101785.62;110871;1209;139745;-60
2023/04/10 05:27:03;;;;;;;39.60;20.40;;;;;;;5.30;88.91;101784.37;111073;1212;99205;-60
2023/04/10 05:29:29;;;;;;;38.60;19.80;;;;;;;5.37;88.93;101782.40;110904;1210;140953;-61
2023/04/10 05:31:55;;;;;;;31.70;19.10;;;;;;;5.40;88.77;101784.69;111097;1218;98919;-62
2023/04/10 05:34:20;;;;;;;37.80;20.00;;;;;;;5.42;88.72;101790.36;110997;1209;98956;-60
2023/04/10 05:36:45;;;;;;;40.30;19.60;;;;;;;5.43;88.63;101786.10;110866;1212;140177;-60
2023/04/10 05:39:10;;;;;;;39.10;20.20;;;;;;;5.46;88.86;101790.52;111090;1212;98979;-60
2023/04/10 05:41:36;;;;;;;39.40;20.40;;;;;;;5.51;88.82;101793.33;110810;1206;139527;-60
2023/04/10 05:44:01;;;;;;;37.20;20.70;;;;;;;5.60;89.00;101790.63;111011;1213;99003;-60
2023/04/10 05:46:26;;;;;;;39.50;19.30;;;;;;;5.69;88.99;101791.13;110945;1206;98999;-60
2023/04/10 05:48:52;;;;;;;38.40;19.70;;;;;;;5.78;89.15;101794.27;110927;1211;139193;-60
2023/04/10 05:51:17;;;;;;;39.30;17.90;;;;;;;5.88;89.24;101793.52;111021;1206;99438;-60
2023/04/10 05:53:42;;;;;;;40.30;19.00;;;;;;;5.96;89.14;101794.38;110870;1206;139531;-60
2023/04/10 05:56:07;;;;;;;33.20;16.80;;;;;;;6.00;89.04;101792.94;110998;1206;98914;-60
2023/04/10 05:58:33;;;;;;;31.20;16.90;;;;;;;6.06;89.14;101800.35;110976;1212;99078;-60
2023/04/10 06:00:58;;;;;;;32.10;15.50;;;;;;;6.12;89.17;101799.60;110927;1211;139432;-60
2023/04/10 06:03:26;;;;;;;36.30;16.90;;;;;;;6.20;89.25;101798.30;110987;1210;98912;-59
2023/04/10 06:05:52;;;;;;;28.30;15.60;;;;;;;6.29;89.13;101804.45;110883;1211;140848;-60
2023/04/10 06:08:18;;;;;;;30.60;15.50;;;;;;;6.37;89.25;101798.52;111035;1212;97827;-60
2023/04/10 06:10:45;;;;;;;29.50;14.60;;;;;;;6.48;89.37;101798.63;111007;1212;99165;-61
2023/04/10 06:13:10;;;;;;;29.50;14.50;;;;;;;6.53;89.08;101798.58;110922;1212;140789;-61
2023/04/10 06:15:35;;;;;;;30.30;15.10;;;;;;;6.57;88.99;101802.45;110946;1206;98944;-60
2023/04/10 06:18:00;;;;;;;33.80;16.70;;;;;;;6.62;89.04;101802.59;110921;1212;139821;-61
2023/04/10 06:20:26;;;;;;;29.40;15.80;;;;;;;6.68;89.05;101801.12;110967;1210;99134;-61
2023/04/10 06:22:52;;;;;;;28.60;15.70;;;;;;;6.72;89.02;101807.48;111067;1212;99071;-61
2023/04/10 06:25:17;;;;;;;30.50;15.10;;;;;;;6.77;89.00;101804.05;110889;1206;139423;-61
2023/04/10 06:27:42;;;;;;;28.10;14.40;;;;;;;6.84;89.10;101803.63;110976;1212;99186;-62
2023/04/10 06:30:10;;;;;;;27.70;14.80;;;;;;;6.95;89.10;101801.58;110925;1206;139138;-61
2023/04/10 06:32:35;;;;;;;26.00;15.00;;;;;;;7.00;88.90;101797.80;111009;1212;107713;-61
2023/04/10 06:35:01;;;;;;;28.70;15.40;;;;;;;7.07;88.94;101790.79;110994;1206;99052;-61
2023/04/10 06:37:30;;;;;;;29.80;14.60;;;;;;;7.13;88.89;101790.71;110954;1206;141379;-61
2023/04/10 06:40:07;;;;;;;30.70;16.20;;;;;;;7.17;88.65;101788.38;111053;1209;99451;-61
2023/04/10 06:42:33;;;;;;;30.90;16.00;;;;;;;7.16;88.79;101789.79;110786;1212;139452;-61
2023/04/10 06:44:58;;;;;;;29.60;16.40;;;;;;;7.18;88.66;101794.04;110964;1210;98993;-61
2023/04/10 06:47:23;;;;;;;27.60;15.20;;;;;;;7.25;88.76;101792.02;111002;1212;98933;-62
2023/04/10 06:49:48;;;;;;;29.60;15.80;;;;;;;7.32;88.66;101796.20;110910;1211;138758;-61
2023/04/10 06:52:14;;;;;;;30.30;17.60;;;;;;;7.34;88.62;101796.17;111045;1206;98947;-60
2023/04/10 06:54:39;;;;;;;28.70;15.70;;;;;;;7.32;88.47;101797.44;110859;1212;139430;-60
2023/04/10 06:57:05;;;;;;;31.80;16.60;;;;;;;7.30;88.39;101795.33;110970;1212;99034;-60
2023/04/10 06:59:32;;;;;;;29.90;15.80;;;;;;;7.34;88.43;101795.99;110948;1206;139598;-59
2023/04/10 07:01:58;;;;;;;26.90;14.60;;;;;;;7.43;88.62;101796.95;111001;1211;99041;-60
2023/04/10 07:04:23;;;;;;;26.10;15.40;;;;;;;7.49;88.54;101802.74;110998;1206;98707;-61
2023/04/10 07:06:48;;;;;;;29.70;15.20;;;;;;;7.54;88.43;101798.60;110941;1211;139581;-61
2023/04/10 07:09:13;;;;;;;27.30;14.50;;;;;;;7.63;88.47;101794.75;110942;1212;98939;-60
2023/04/10 07:11:39;;;;;;;25.70;15.00;;;;;;;7.68;88.35;101795.03;110922;1211;139853;-61
2023/04/10 07:14:04;;;;;;;30.20;15.00;;;;;;;7.74;88.29;101801.54;111064;1211;99127;-61
2023/04/10 07:16:29;;;;;;;27.80;15.00;;;;;;;7.85;88.34;101799.95;111016;1209;98967;-60
2023/04/10 07:18:55;;;;;;;27.20;14.40;;;;;;;7.94;88.30;101805.15;110834;1209;140105;-61
2023/04/10 07:21:20;;;;;;;27.90;14.80;;;;;;;7.98;88.15;101807.05;111024;1206;99016;-61
2023/04/10 07:23:46;;;;;;;30.50;15.80;;;;;;;8.08;88.32;101806.18;110901;1211;139901;-60
2023/04/10 07:26:11;;;;;;;28.20;15.00;;;;;;;8.19;88.21;101805.50;110975;1206;99040;-60
2023/04/10 07:28:37;;;;;;;29.20;16.10;;;;;;;8.28;88.17;101806.25;111066;1208;98998;-63
2023/04/10 07:31:02;;;;;;;29.40;15.50;;;;;;;8.34;88.08;101803.86;110916;1210;139624;-61
2023/04/10 07:33:27;;;;;;;31.10;16.50;;;;;;;8.43;88.06;101804.27;110948;1212;98933;-61
2023/04/10 07:35:53;;;;;;;36.70;18.90;;;;;;;8.52;88.09;101800.92;110957;1206;140648;-61
2023/04/10 07:38:18;;;;;;;33.90;18.10;;;;;;;8.61;88.01;101800.05;111036;1210;99134;-61
2023/04/10 07:40:43;;;;;;;35.90;18.70;;;;;;;8.64;87.76;101796.25;111047;1212;100393;-60
2023/04/10 07:43:09;;;;;;;38.80;19.20;;;;;;;8.58;87.60;101791.02;110871;1206;139582;-60
2023/04/10 07:45:34;;;;;;;35.50;19.30;;;;;;;8.58;87.63;101787.80;110945;1208;99012;-61
2023/04/10 07:48:00;;;;;;;47.60;21.50;;;;;;;8.59;87.56;101786.19;110944;1212;140532;-61
2023/04/10 07:50:26;;;;;;;51.50;25.40;;;;;;;8.59;87.54;101786.54;110998;1209;98951;-60
2023/04/10 07:52:51;;;;;;;49.70;23.90;;;;;;;8.63;87.58;101786.30;110996;1209;99051;-60
2023/04/10 07:55:16;;;;;;;46.60;24.00;;;;;;;8.66;87.65;101785.00;110951;1206;139632;-61
2023/04/10 07:57:42;;;;;;;49.20;24.90;;;;;;;8.70;87.62;101786.89;110959;1209;98957;-61
2023/04/10 08:00:08;;;;;;;42.70;21.40;;;;;;;8.74;87.65;101783.96;110982;1211;138989;-61
2023/04/10 08:02:33;;;;;;;42.80;23.10;;;;;;;8.80;87.62;101781.73;110981;1212;98997;-60
2023/04/10 08:04:59;;;;;;;45.50;23.60;;;;;;;8.86;87.56;101780.73;111010;1211;99718;-61
2023/04/10 08:07:24;;;;;;;43.30;21.50;;;;;;;8.92;87.58;101781.69;110913;1206;139590;-61
2023/04/10 08:09:49;;;;;;;44.50;21.50;;;;;;;8.97;87.50;101782.30;110992;1211;99038;-61
2023/04/10 08:12:15;;;;;;;49.40;21.30;;;;;;;9.02;87.44;101775.08;110946;1206;140636;-60
2023/04/10 08:14:40;;;;;;;43.50;23.30;;;;;;;9.07;87.39;101773.02;110940;1206;98906;-61
2023/04/10 08:17:05;;;;;;;51.80;22.20;;;;;;;9.08;87.29;101772.11;111013;1211;98992;-61
2023/04/10 08:19:31;;;;;;;52.10;24.00;;;;;;;9.12;87.36;101768.82;110810;1212;141288;-60
2023/04/10 08:21:56;;;;;;;43.90;21.90;;;;;;;9.25;87.47;101761.80;111020;1206;98353;-61
2023/04/10 08:24:21;;;;;;;48.70;25.10;;;;;;;9.31;87.32;101756.68;110951;1209;139726;-61
2023/04/10 08:26:47;;;;;;;49.40;23.60;;;;;;;9.37;87.31;101756.20;110984;1211;98926;-61
2023/04/10 08:29:12;;;;;;;51.40;23.50;;;;;;;9.41;87.18;101756.46;111000;1206;98937;-62
2023/04/10 08:31:38;;;;;;;52.20;24.70;;;;;;;9.45;87.17;101756.20;110943;1209;138983;-61
2023/04/10 08:34:03;;;;;;;58.50;25.80;;;;;;;9.50;87.16;101755.75;110992;1211;98936;-61
2023/04/10 08:36:28;;;;;;;52.00;25.70;;;;;;;9.56;87.11;101754.73;110882;1216;139101;-61
2023/04/10 08:38:54;;;;;;;51.80;26.10;;;;;;;9.62;87.06;101751.73;111034;1211;98991;-61
2023/04/10 08:41:19;;;;;;;47.90;24.50;;;;;;;9.69;87.16;101754.42;111022;1211;98935;-60
2023/04/10 08:43:45;;;;;;;51.50;25.20;;;;;;;9.81;87.09;101752.94;110809;1206;139022;-61
2023/04/10 08:46:11;;;;;;;46.50;24.00;;;;;;;9.93;87.17;101753.89;110993;1206;99018;-60
2023/04/10 08:49:00;;;;;;;48.70;23.80;;;;;;;10.01;87.01;101758.52;111044;1209;140337;-61
2023/04/10 08:51:34;;;;;;;53.30;24.60;;;;;;;10.14;87.09;101759.84;110908;1211;100429;-61
2023/04/10 08:54:05;;;;;;;53.00;24.80;;;;;;;10.20;86.86;101754.89;110876;1206;140090;-61
2023/04/10 08:56:32;;;;;;;45.70;23.60;;;;;;;10.26;86.82;101750.81;111280;1211;100245;-61
2023/04/10 08:58:58;;;;;;;56.10;23.00;;;;;;;10.34;86.65;101746.34;111022;1211;98934;-61
2023/04/10 09:01:24;;;;;;;46.10;22.40;;;;;;;10.39;86.60;101740.48;110793;1211;139287;-61
2023/04/10 09:03:50;;;;;;;50.80;24.10;;;;;;;10.41;86.47;101737.19;111190;1206;99024;-60
2023/04/10 09:06:15;;;;;;;48.40;21.80;;;;;;;10.43;86.38;101742.14;110896;1212;140532;-60
2023/04/10 09:08:41;;;;;;;41.00;20.90;;;;;;;10.44;86.22;101739.45;110987;1206;99502;-61
2023/04/10 09:11:06;;;;;;;42.60;21.90;;;;;;;10.43;86.13;101734.30;111057;1207;98922;-61
2023/04/10 09:13:45;;;;;;;39.20;20.40;;;;;;;10.48;86.16;101735.95;110804;1210;140077;-61
2023/04/10 09:16:12;;;;;;;42.10;23.10;;;;;;;10.56;86.06;101732.52;111086;1210;99004;-61
2023/04/10 09:18:49;;;;;;;44.30;22.70;;;;;;;10.64;86.00;101737.84;110900;1211;139794;-61
2023/04/10 09:21:20;;;;;;;42.20;19.10;;;;;;;10.76;86.04;101733.77;111029;1206;113036;-61
2023/04/10 09:23:46;;;;;;;33.30;17.80;;;;;;;10.90;86.11;101732.68;110938;1211;139486;-61
2023/04/10 09:26:27;;;;;;;41.20;20.00;;;;;;;11.02;86.00;101731.64;110990;1208;99688;-60
2023/04/10 09:28:58;;;;;;;42.90;21.90;;;;;;;11.10;85.65;101724.08;111047;1211;98961;-60
2023/04/10 09:31:29;;;;;;;50.30;23.80;;;;;;;11.22;85.84;101727.48;110857;1211;141883;-61
2023/04/10 09:34:16;;;;;;;43.80;21.30;;;;;;;11.34;85.56;101721.94;111050;1209;112509;-60
2023/04/10 09:36:43;;;;;;;40.40;21.30;;;;;;;11.48;85.57;101720.11;110812;1211;142380;-61
2023/04/10 09:39:10;;;;;;;37.00;19.90;;;;;;;11.58;85.47;101716.59;111016;1209;107814;-61
2023/04/10 09:41:47;;;;;;;42.80;20.60;;;;;;;11.65;85.11;101714.02;110964;1206;140629;-60
2023/04/10 09:44:12;;;;;;;49.40;20.40;;;;;;;11.67;85.09;101711.48;111014;1210;99041;-60
2023/04/10 09:46:38;;;;;;;42.80;21.20;;;;;;;11.72;85.07;101707.91;110948;1210;98983;-60
2023/04/10 09:49:04;;;;;;;47.40;23.90;;;;;;;11.80;85.03;101705.35;110928;1209;140115;-60
2023/04/10 09:51:31;;;;;;;44.60;22.00;;;;;;;11.90;84.91;101698.78;110929;1208;98964;-60
2023/04/10 09:53:56;;;;;;;45.00;23.60;;;;;;;12.02;84.90;101698.56;110924;1212;139330;-60
2023/04/10 09:56:23;;;;;;;46.60;24.80;;;;;;;12.16;84.99;101695.96;110932;1206;99060;-60
2023/04/10 09:58:50;;;;;;;53.20;26.80;;;;;;;12.31;84.79;101690.79;110986;1209;108001;-60
2023/04/10 10:01:15;;;;;;;53.50;24.80;;;;;;;12.43;84.79;101685.73;110881;1208;141191;-60
2023/04/10 10:03:41;;;;;;;49.20;24.30;;;;;;;12.51;84.55;101680.95;111034;1209;99053;-60
2023/04/10 10:06:08;;;;;;;54.60;27.00;;;;;;;12.56;84.33;101676.48;111063;1206;140351;-60
2023/04/10 10:08:35;;;;;;;58.00;27.60;;;;;;;12.60;84.23;101673.45;110965;1211;99002;-61
2023/04/10 10:11:05;;;;;;;54.20;27.60;;;;;;;12.68;84.08;101672.13;111015;1208;99601;-61
2023/04/10 10:13:37;;;;;;;56.70;26.50;;;;;;;12.73;83.90;101668.88;110772;1212;140075;-61
2023/04/10 10:16:27;;;;;;;51.10;26.70;;;;;;;12.81;84.03;101664.48;110986;1209;112656;-62
2023/04/10 10:19:11;;;;;;;53.10;26.90;;;;;;;12.87;83.82;101664.25;110841;1211;139958;-60
2023/04/10 10:21:37;;;;;;;55.00;26.70;;;;;;;12.93;83.78;101662.58;110831;1212;108124;-61
2023/04/10 10:24:07;;;;;;;52.40;25.50;;;;;;;12.92;83.47;101660.84;110881;1206;140054;-60
2023/04/10 10:26:34;;;;;;;48.40;26.00;;;;;;;12.96;83.48;101661.58;110956;1206;99762;-60
2023/04/10 10:29:09;;;;;;;47.40;24.80;;;;;;;13.03;83.38;101656.80;111070;1206;112916;-61
2023/04/10 10:31:36;;;;;;;46.00;24.20;;;;;;;13.15;83.40;101656.70;110889;1209;139278;-60
2023/04/10 10:34:04;;;;;;;49.90;25.40;;;;;;;13.25;83.16;101652.94;111038;1206;98943;-59
2023/04/10 10:36:33;;;;;;;48.50;24.20;;;;;;;13.30;83.09;101654.52;110933;1222;139013;-59
2023/04/10 10:39:17;;;;;;;54.20;26.10;;;;;;;13.35;82.87;101652.73;110939;1211;100048;-60
2023/04/10 10:41:50;;;;;;;50.50;25.50;;;;;;;13.41;82.78;101647.48;110821;1206;141796;-59
2023/04/10 10:44:43;;;;;;;50.20;23.80;;;;;;;13.49;82.68;101647.67;110960;1209;100345;-60
2023/04/10 10:47:19;;;;;;;45.50;25.50;;;;;;;13.60;82.59;101645.46;111027;1212;106565;-60
2023/04/10 10:49:53;;;;;;;48.70;24.60;;;;;;;13.65;82.31;101641.66;110869;1222;140466;-60
2023/04/10 10:52:38;;;;;;;44.30;23.80;;;;;;;13.74;82.26;101639.54;111100;1211;99567;-60
2023/04/10 10:55:27;;;;;;;52.60;25.00;;;;;;;13.86;82.17;101639.02;110875;1206;139601;-60
2023/04/10 10:57:54;;;;;;;40.40;23.00;;;;;;;13.97;82.13;101628.52;111032;1211;99978;-60
2023/04/10 11:00:21;;;;;;;42.90;20.90;;;;;;;14.06;81.85;101627.59;110980;1206;139391;-61
2023/04/10 11:03:06;;;;;;;35.30;19.30;;;;;;;14.13;81.57;101625.68;110988;1211;99031;-61
2023/04/10 11:06:01;;;;;;;30.20;17.60;;;;;;;14.28;81.58;101626.96;110795;1212;140351;-61